sensor_id;sensor_type;location;lat;lon;timestamp;pressure;altitude;pressure_sealevel;temperature;humidity
75290;BME280;63883;48.996;20.804;2023-04-30T00:01:43;96406.44;;;6.20;95.15
75290;BME280;63883;48.996;20.804;2023-04-30T00:04:08;96395.56;;;6.14;94.79
75290;BME280;63883;48.996;20.804;2023-04-30T00:06:34;96393.19;;;6.03;94.83
75290;BME280;63883;48.996;20.804;2023-04-30T00:09:00;96398.34;;;5.96;94.62
75290;BME280;63883;48.996;20.804;2023-04-30T00:11:25;96387.44;;;5.86;94.76
75290;BME280;63883;48.996;20.804;2023-04-30T00:13:52;96384.97;;;5.81;95.24
75290;BME280;63883;48.996;20.804;2023-04-30T00:16:18;96386.75;;;5.72;95.32
75290;BME280;63883;48.996;20.804;2023-04-30T00:18:44;96386.00;;;5.67;96.06
75290;BME280;63883;48.996;20.804;2023-04-30T00:21:10;96382.69;;;5.62;96.12
75290;BME280;63883;48.996;20.804;2023-04-30T00:23:35;96374.34;;;5.52;96.00
75290;BME280;63883;48.996;20.804;2023-04-30T00:26:01;96380.34;;;5.43;95.80
75290;BME280;63883;48.996;20.804;2023-04-30T00:28:27;96382.09;;;5.37;95.93
75290;BME280;63883;48.996;20.804;2023-04-30T00:30:53;96387.16;;;5.35;96.83
75290;BME280;63883;48.996;20.804;2023-04-30T00:33:18;96388.84;;;5.36;96.98
75290;BME280;63883;48.996;20.804;2023-04-30T00:35:44;96390.53;;;5.34;96.78
75290;BME280;63883;48.996;20.804;2023-04-30T00:38:10;96400.72;;;5.28;96.44
75290;BME280;63883;48.996;20.804;2023-04-30T00:40:37;96389.84;;;5.20;96.35
75290;BME280;63883;48.996;20.804;2023-04-30T00:43:04;96392.41;;;5.16;96.41
75290;BME280;63883;48.996;20.804;2023-04-30T00:45:29;96396.66;;;5.12;96.60
75290;BME280;63883;48.996;20.804;2023-04-30T00:47:55;96393.31;;;5.10;96.85
75290;BME280;63883;48.996;20.804;2023-04-30T00:50:21;96385.75;;;5.10;97.17
75290;BME280;63883;48.996;20.804;2023-04-30T00:52:47;96390.75;;;5.15;97.93
75290;BME280;63883;48.996;20.804;2023-04-30T00:55:13;96378.09;;;5.15;97.83
75290;BME280;63883;48.996;20.804;2023-04-30T00:57:39;96387.34;;;5.17;97.63
75290;BME280;63883;48.996;20.804;2023-04-30T01:00:06;96389.03;;;5.17;97.67
75290;BME280;63883;48.996;20.804;2023-04-30T01:02:39;96394.94;;;5.14;97.53
75290;BME280;63883;48.996;20.804;2023-04-30T01:05:06;96397.47;;;5.19;96.94
75290;BME280;63883;48.996;20.804;2023-04-30T01:07:36;96395.72;;;5.24;96.99
75290;BME280;63883;48.996;20.804;2023-04-30T01:10:10;96404.84;;;5.38;97.23
75290;BME280;63883;48.996;20.804;2023-04-30T01:12:38;96408.94;;;5.48;96.57
75290;BME280;63883;48.996;20.804;2023-04-30T01:15:27;96414.00;;;5.50;95.92
75290;BME280;63883;48.996;20.804;2023-04-30T01:18:12;96412.28;;;5.50;95.86
75290;BME280;63883;48.996;20.804;2023-04-30T01:20:51;96402.13;;;5.55;96.33
75290;BME280;63883;48.996;20.804;2023-04-30T01:26:20;96402.03;;;5.63;96.43
75290;BME280;63883;48.996;20.804;2023-04-30T01:28:56;96410.44;;;5.68;96.33
75290;BME280;63883;48.996;20.804;2023-04-30T01:31:23;96404.47;;;5.73;96.11
75290;BME280;63883;48.996;20.804;2023-04-30T01:33:48;96400.19;;;5.78;95.91
75290;BME280;63883;48.996;20.804;2023-04-30T01:38:59;96405.09;;;5.94;95.64
75290;BME280;63883;48.996;20.804;2023-04-30T01:41:49;96405.00;;;6.01;95.30
75290;BME280;63883;48.996;20.804;2023-04-30T01:47:06;96399.00;;;6.08;95.15
75290;BME280;63883;48.996;20.804;2023-04-30T01:49:46;96400.69;;;6.09;95.00
75290;BME280;63883;48.996;20.804;2023-04-30T01:55:14;96394.78;;;6.10;94.96
75290;BME280;63883;48.996;20.804;2023-04-30T01:57:44;96401.50;;;6.11;95.08
75290;BME280;63883;48.996;20.804;2023-04-30T02:00:11;96399.00;;;6.10;95.25
75290;BME280;63883;48.996;20.804;2023-04-30T02:02:39;96403.22;;;6.09;95.13
75290;BME280;63883;48.996;20.804;2023-04-30T02:05:05;96408.28;;;6.09;95.13
75290;BME280;63883;48.996;20.804;2023-04-30T02:07:45;96407.47;;;6.06;95.20
75290;BME280;63883;48.996;20.804;2023-04-30T02:10:12;96413.34;;;6.09;95.51
75290;BME280;63883;48.996;20.804;2023-04-30T02:12:38;96410.81;;;6.11;95.25
75290;BME280;63883;48.996;20.804;2023-04-30T02:15:04;96400.63;;;6.14;95.52
75290;BME280;63883;48.996;20.804;2023-04-30T02:17:31;96405.59;;;6.20;95.14
75290;BME280;63883;48.996;20.804;2023-04-30T02:19:57;96405.56;;;6.23;94.99
75290;BME280;63883;48.996;20.804;2023-04-30T02:22:23;96402.19;;;6.24;94.98
75290;BME280;63883;48.996;20.804;2023-04-30T02:24:49;96407.25;;;6.25;94.73
75290;BME280;63883;48.996;20.804;2023-04-30T02:27:17;96409.78;;;6.25;94.78
75290;BME280;63883;48.996;20.804;2023-04-30T02:29:42;96413.13;;;6.26;94.73
75290;BME280;63883;48.996;20.804;2023-04-30T02:32:08;96408.03;;;6.27;94.70
75290;BME280;63883;48.996;20.804;2023-04-30T02:34:34;96415.56;;;6.34;94.75
75290;BME280;63883;48.996;20.804;2023-04-30T02:36:59;96408.75;;;6.37;94.78
75290;BME280;63883;48.996;20.804;2023-04-30T02:39:25;96417.97;;;6.43;94.84
75290;BME280;63883;48.996;20.804;2023-04-30T02:41:51;96414.53;;;6.47;94.70
75290;BME280;63883;48.996;20.804;2023-04-30T02:44:17;96411.94;;;6.50;94.92
75290;BME280;63883;48.996;20.804;2023-04-30T02:46:43;96411.91;;;6.53;94.61
75290;BME280;63883;48.996;20.804;2023-04-30T02:49:08;96415.28;;;6.55;94.92
75290;BME280;63883;48.996;20.804;2023-04-30T02:51:34;96416.03;;;6.61;94.87
75290;BME280;63883;48.996;20.804;2023-04-30T02:54:00;96415.91;;;6.69;94.93
75290;BME280;63883;48.996;20.804;2023-04-30T02:56:26;96426.88;;;6.70;95.75
75290;BME280;63883;48.996;20.804;2023-04-30T02:58:52;96415.97;;;6.64;96.37
75290;BME280;63883;48.996;20.804;2023-04-30T03:01:18;96426.06;;;6.68;96.87
75290;BME280;63883;48.996;20.804;2023-04-30T03:03:43;96430.28;;;6.69;96.82
75290;BME280;63883;48.996;20.804;2023-04-30T03:06:09;96424.38;;;6.68;96.44
75290;BME280;63883;48.996;20.804;2023-04-30T03:08:35;96423.50;;;6.69;96.45
75290;BME280;63883;48.996;20.804;2023-04-30T03:11:01;96423.41;;;6.77;96.21
75290;BME280;63883;48.996;20.804;2023-04-30T03:13:26;96433.47;;;6.80;95.82
75290;BME280;63883;48.996;20.804;2023-04-30T03:15:57;96431.66;;;6.89;96.11
75290;BME280;63883;48.996;20.804;2023-04-30T03:18:23;96435.78;;;6.93;96.46
75290;BME280;63883;48.996;20.804;2023-04-30T03:20:49;96440.03;;;6.93;95.28
75290;BME280;63883;48.996;20.804;2023-04-30T03:23:14;96436.72;;;6.91;94.85
75290;BME280;63883;48.996;20.804;2023-04-30T03:25:41;96435.97;;;6.83;95.45
75290;BME280;63883;48.996;20.804;2023-04-30T03:28:06;96434.28;;;6.83;96.12
75290;BME280;63883;48.996;20.804;2023-04-30T03:30:32;96435.03;;;6.88;96.84
75290;BME280;63883;48.996;20.804;2023-04-30T03:32:57;96435.88;;;6.90;96.70
75290;BME280;63883;48.996;20.804;2023-04-30T03:35:24;96435.06;;;6.87;96.53
75290;BME280;63883;48.996;20.804;2023-04-30T03:37:49;96441.03;;;6.84;96.96
75290;BME280;63883;48.996;20.804;2023-04-30T03:40:15;96435.13;;;6.82;96.83
75290;BME280;63883;48.996;20.804;2023-04-30T03:42:41;96431.03;;;6.75;96.86
75290;BME280;63883;48.996;20.804;2023-04-30T03:45:07;96431.00;;;6.77;97.23
75290;BME280;63883;48.996;20.804;2023-04-30T03:47:35;96434.41;;;6.74;96.96
75290;BME280;63883;48.996;20.804;2023-04-30T03:50:02;96431.06;;;6.72;97.28
75290;BME280;63883;48.996;20.804;2023-04-30T03:52:28;96441.16;;;6.77;97.32
75290;BME280;63883;48.996;20.804;2023-04-30T03:54:54;96437.72;;;6.79;97.25
75290;BME280;63883;48.996;20.804;2023-04-30T03:57:20;96452.06;;;6.79;96.14
75290;BME280;63883;48.996;20.804;2023-04-30T03:59:46;96459.75;;;6.74;95.62
75290;BME280;63883;48.996;20.804;2023-04-30T04:02:12;96455.63;;;6.69;95.92
75290;BME280;63883;48.996;20.804;2023-04-30T04:04:38;96461.56;;;6.66;96.17
75290;BME280;63883;48.996;20.804;2023-04-30T04:07:04;96457.44;;;6.59;95.48
75290;BME280;63883;48.996;20.804;2023-04-30T04:09:32;96462.59;;;6.53;95.74
75290;BME280;63883;48.996;20.804;2023-04-30T04:11:57;96466.03;;;6.47;96.35
75290;BME280;63883;48.996;20.804;2023-04-30T04:14:23;96463.47;;;6.49;96.49
75290;BME280;63883;48.996;20.804;2023-04-30T04:16:49;96465.13;;;6.51;96.34
75290;BME280;63883;48.996;20.804;2023-04-30T04:19:15;96462.50;;;6.57;96.60
75290;BME280;63883;48.996;20.804;2023-04-30T04:21:40;96469.13;;;6.69;96.21
75290;BME280;63883;48.996;20.804;2023-04-30T04:24:06;96465.56;;;6.81;95.52
75290;BME280;63883;48.996;20.804;2023-04-30T04:26:36;96462.94;;;6.88;95.44
75290;BME280;63883;48.996;20.804;2023-04-30T04:29:03;96464.50;;;6.95;95.44
75290;BME280;63883;48.996;20.804;2023-04-30T04:31:29;96462.78;;;6.97;95.17
75290;BME280;63883;48.996;20.804;2023-04-30T04:33:58;96470.31;;;7.02;95.61
75290;BME280;63883;48.996;20.804;2023-04-30T04:36:28;96465.28;;;6.99;95.58
75290;BME280;63883;48.996;20.804;2023-04-30T04:38:57;96468.63;;;7.04;95.25
75290;BME280;63883;48.996;20.804;2023-04-30T04:41:35;96471.06;;;7.07;94.74
75290;BME280;63883;48.996;20.804;2023-04-30T04:44:01;96476.09;;;7.12;94.77
75290;BME280;63883;48.996;20.804;2023-04-30T04:46:28;96479.31;;;7.21;94.54
75290;BME280;63883;48.996;20.804;2023-04-30T04:48:54;96481.72;;;7.30;93.88
75290;BME280;63883;48.996;20.804;2023-04-30T04:51:20;96479.81;;;7.43;93.36
75290;BME280;63883;48.996;20.804;2023-04-30T04:53:46;96479.69;;;7.51;92.95
75290;BME280;63883;48.996;20.804;2023-04-30T04:56:12;96480.31;;;7.63;92.50
75290;BME280;63883;48.996;20.804;2023-04-30T04:58:38;96482.78;;;7.68;91.86
75290;BME280;63883;48.996;20.804;2023-04-30T05:01:04;96476.84;;;7.69;92.31
75290;BME280;63883;48.996;20.804;2023-04-30T05:03:31;96485.94;;;7.79;91.91
75290;BME280;63883;48.996;20.804;2023-04-30T05:05:57;96494.50;;;7.75;91.48
75290;BME280;63883;48.996;20.804;2023-04-30T05:08:24;96491.09;;;7.76;91.52
75290;BME280;63883;48.996;20.804;2023-04-30T05:10:50;96505.34;;;7.84;91.66
75290;BME280;63883;48.996;20.804;2023-04-30T05:13:15;96496.91;;;7.81;91.43
75290;BME280;63883;48.996;20.804;2023-04-30T05:15:41;96498.50;;;7.87;91.13
75290;BME280;63883;48.996;20.804;2023-04-30T05:18:07;96501.75;;;7.95;90.76
75290;BME280;63883;48.996;20.804;2023-04-30T05:20:33;96505.78;;;8.06;89.63
75290;BME280;63883;48.996;20.804;2023-04-30T05:22:58;96511.53;;;8.14;89.67
75290;BME280;63883;48.996;20.804;2023-04-30T05:25:24;96509.66;;;8.24;89.83
75290;BME280;63883;48.996;20.804;2023-04-30T05:27:50;96510.34;;;8.34;89.94
75290;BME280;63883;48.996;20.804;2023-04-30T05:30:15;96516.16;;;8.40;89.67
75290;BME280;63883;48.996;20.804;2023-04-30T05:32:41;96512.66;;;8.44;89.50
75290;BME280;63883;48.996;20.804;2023-04-30T05:35:07;96507.72;;;8.38;89.03
75290;BME280;63883;48.996;20.804;2023-04-30T05:37:33;96515.28;;;8.41;89.26
75290;BME280;63883;48.996;20.804;2023-04-30T05:39:59;96517.59;;;8.52;90.08
75290;BME280;63883;48.996;20.804;2023-04-30T05:42:25;96520.94;;;8.55;89.12
75290;BME280;63883;48.996;20.804;2023-04-30T05:44:50;96520.16;;;8.52;88.54
75290;BME280;63883;48.996;20.804;2023-04-30T05:47:16;96520.25;;;8.47;87.84
75290;BME280;63883;48.996;20.804;2023-04-30T05:49:42;96536.19;;;8.55;88.27
75290;BME280;63883;48.996;20.804;2023-04-30T05:52:08;96533.66;;;8.54;87.81
75290;BME280;63883;48.996;20.804;2023-04-30T05:54:33;96527.72;;;8.55;87.76
75290;BME280;63883;48.996;20.804;2023-04-30T05:56:59;96529.44;;;8.54;87.38
75290;BME280;63883;48.996;20.804;2023-04-30T05:59:25;96530.25;;;8.55;87.39
75290;BME280;63883;48.996;20.804;2023-04-30T06:01:51;96527.59;;;8.61;87.58
75290;BME280;63883;48.996;20.804;2023-04-30T06:04:17;96528.31;;;8.68;87.80
75290;BME280;63883;48.996;20.804;2023-04-30T06:06:43;96525.00;;;8.64;87.81
75290;BME280;63883;48.996;20.804;2023-04-30T06:09:08;96528.28;;;8.69;88.20
75290;BME280;63883;48.996;20.804;2023-04-30T06:11:35;96516.91;;;8.85;88.45
75290;BME280;63883;48.996;20.804;2023-04-30T06:14:02;96519.06;;;9.02;86.97
75290;BME280;63883;48.996;20.804;2023-04-30T06:16:28;96516.19;;;9.17;86.44
75290;BME280;63883;48.996;20.804;2023-04-30T06:18:54;96515.97;;;9.26;85.55
75290;BME280;63883;48.996;20.804;2023-04-30T06:21:20;96513.88;;;9.44;86.33
75290;BME280;63883;48.996;20.804;2023-04-30T06:23:45;96512.06;;;9.49;84.11
75290;BME280;63883;48.996;20.804;2023-04-30T06:26:11;96512.78;;;9.54;84.22
75290;BME280;63883;48.996;20.804;2023-04-30T06:28:39;96520.19;;;9.63;84.71
75290;BME280;63883;48.996;20.804;2023-04-30T06:31:05;96515.75;;;9.71;83.43
75290;BME280;63883;48.996;20.804;2023-04-30T06:33:31;96514.72;;;9.78;83.41
75290;BME280;63883;48.996;20.804;2023-04-30T06:35:57;96520.28;;;9.94;82.50
75290;BME280;63883;48.996;20.804;2023-04-30T06:38:22;96515.06;;;9.98;83.04
75290;BME280;63883;48.996;20.804;2023-04-30T06:40:48;96515.06;;;9.98;82.17
75290;BME280;63883;48.996;20.804;2023-04-30T06:43:14;96514.19;;;9.99;82.34
75290;BME280;63883;48.996;20.804;2023-04-30T06:45:40;96525.03;;;10.06;83.19
75290;BME280;63883;48.996;20.804;2023-04-30T06:48:05;96526.09;;;9.99;82.67
75290;BME280;63883;48.996;20.804;2023-04-30T06:50:31;96527.63;;;10.04;82.24
75290;BME280;63883;48.996;20.804;2023-04-30T06:52:57;96527.75;;;10.00;82.25
75290;BME280;63883;48.996;20.804;2023-04-30T06:55:23;96536.28;;;9.99;82.30
75290;BME280;63883;48.996;20.804;2023-04-30T06:57:49;96529.47;;;9.99;81.89
75290;BME280;63883;48.996;20.804;2023-04-30T07:00:15;96533.41;;;10.11;82.63
75290;BME280;63883;48.996;20.804;2023-04-30T07:02:41;96535.06;;;10.12;81.16
75290;BME280;63883;48.996;20.804;2023-04-30T07:05:07;96536.72;;;10.14;80.65
75290;BME280;63883;48.996;20.804;2023-04-30T07:07:33;96535.75;;;10.20;80.23
75290;BME280;63883;48.996;20.804;2023-04-30T07:09:59;96539.84;;;10.26;80.92
75290;BME280;63883;48.996;20.804;2023-04-30T07:12:25;96545.50;;;10.37;79.14
75290;BME280;63883;48.996;20.804;2023-04-30T07:14:51;96545.50;;;10.37;79.55
75290;BME280;63883;48.996;20.804;2023-04-30T07:17:17;96543.72;;;10.39;79.63
75290;BME280;63883;48.996;20.804;2023-04-30T07:19:43;96538.31;;;10.51;79.95
75290;BME280;63883;48.996;20.804;2023-04-30T07:22:08;96539.72;;;10.61;78.83
75290;BME280;63883;48.996;20.804;2023-04-30T07:24:34;96538.84;;;10.62;79.42
75290;BME280;63883;48.996;20.804;2023-04-30T07:27:00;96546.88;;;10.78;78.22
75290;BME280;63883;48.996;20.804;2023-04-30T07:29:28;96539.69;;;10.92;77.33
75290;BME280;63883;48.996;20.804;2023-04-30T07:31:54;96536.94;;;10.98;78.02
75290;BME280;63883;48.996;20.804;2023-04-30T07:34:21;96542.81;;;11.02;78.03
75290;BME280;63883;48.996;20.804;2023-04-30T07:36:47;96543.38;;;11.10;78.76
75290;BME280;63883;48.996;20.804;2023-04-30T07:39:13;96535.38;;;11.22;78.96
75290;BME280;63883;48.996;20.804;2023-04-30T07:41:39;96531.34;;;11.41;77.90
75290;BME280;63883;48.996;20.804;2023-04-30T07:44:05;96540.31;;;11.54;76.95
75290;BME280;63883;48.996;20.804;2023-04-30T07:46:30;96536.84;;;11.83;76.52
75290;BME280;63883;48.996;20.804;2023-04-30T07:48:56;96540.50;;;12.26;72.61
75290;BME280;63883;48.996;20.804;2023-04-30T07:51:22;96526.03;;;12.73;70.87
75290;BME280;63883;48.996;20.804;2023-04-30T07:53:48;96540.66;;;13.16;67.10
75290;BME280;63883;48.996;20.804;2023-04-30T07:56:13;96533.03;;;13.36;65.48
75290;BME280;63883;48.996;20.804;2023-04-30T07:58:39;96533.50;;;13.67;66.04
75290;BME280;63883;48.996;20.804;2023-04-30T08:01:05;96532.38;;;13.75;64.51
75290;BME280;63883;48.996;20.804;2023-04-30T08:03:32;96530.91;;;14.10;65.22
75290;BME280;63883;48.996;20.804;2023-04-30T08:05:58;96535.34;;;14.47;63.00
75290;BME280;63883;48.996;20.804;2023-04-30T08:08:23;96530.22;;;14.47;62.64
75290;BME280;63883;48.996;20.804;2023-04-30T08:10:49;96538.16;;;14.61;61.13
75290;BME280;63883;48.996;20.804;2023-04-30T08:13:15;96535.59;;;14.61;59.11
75290;BME280;63883;48.996;20.804;2023-04-30T08:15:41;96540.06;;;14.35;59.85
75290;BME280;63883;48.996;20.804;2023-04-30T08:18:08;96541.13;;;14.70;59.52
75290;BME280;63883;48.996;20.804;2023-04-30T08:20:33;96535.75;;;14.76;60.32
75290;BME280;63883;48.996;20.804;2023-04-30T08:23:00;96543.44;;;14.95;59.19
75290;BME280;63883;48.996;20.804;2023-04-30T08:25:26;96546.44;;;15.05;58.02
75290;BME280;63883;48.996;20.804;2023-04-30T08:27:51;96547.53;;;14.99;57.03
75290;BME280;63883;48.996;20.804;2023-04-30T08:30:17;96547.88;;;15.10;58.18
75290;BME280;63883;48.996;20.804;2023-04-30T08:32:43;96538.00;;;14.64;56.89
75290;BME280;63883;48.996;20.804;2023-04-30T08:35:09;96562.16;;;14.60;56.31
75290;BME280;63883;48.996;20.804;2023-04-30T08:37:35;96560.78;;;14.71;57.50
75290;BME280;63883;48.996;20.804;2023-04-30T08:40:00;96548.19;;;14.47;56.83
75290;BME280;63883;48.996;20.804;2023-04-30T08:42:30;96549.75;;;14.49;56.98
75290;BME280;63883;48.996;20.804;2023-04-30T08:44:59;96560.47;;;14.59;57.30
75290;BME280;63883;48.996;20.804;2023-04-30T08:47:26;96559.13;;;15.08;58.97
75290;BME280;63883;48.996;20.804;2023-04-30T08:49:52;96558.09;;;15.31;57.27
75290;BME280;63883;48.996;20.804;2023-04-30T08:52:18;96552.31;;;15.26;57.10
75290;BME280;63883;48.996;20.804;2023-04-30T08:54:45;96562.03;;;15.38;57.25
75290;BME280;63883;48.996;20.804;2023-04-30T08:57:11;96555.38;;;15.34;56.31
75290;BME280;63883;48.996;20.804;2023-04-30T08:59:37;96562.66;;;15.61;55.90
75290;BME280;63883;48.996;20.804;2023-04-30T09:02:03;96562.03;;;15.56;55.26
75290;BME280;63883;48.996;20.804;2023-04-30T09:04:29;96578.28;;;15.76;54.85
75290;BME280;63883;48.996;20.804;2023-04-30T09:06:56;96574.06;;;15.37;55.85
75290;BME280;63883;48.996;20.804;2023-04-30T09:09:28;96578.16;;;15.41;56.84
75290;BME280;63883;48.996;20.804;2023-04-30T09:12:16;96586.53;;;15.99;55.89
75290;BME280;63883;48.996;20.804;2023-04-30T09:15:01;96584.22;;;16.12;55.63
75290;BME280;63883;48.996;20.804;2023-04-30T09:17:28;96595.41;;;16.11;55.68
75290;BME280;63883;48.996;20.804;2023-04-30T09:20:05;96591.66;;;15.82;55.68
75290;BME280;63883;48.996;20.804;2023-04-30T09:22:32;96593.72;;;15.93;55.57
75290;BME280;63883;48.996;20.804;2023-04-30T09:24:57;96593.84;;;15.73;55.29
75290;BME280;63883;48.996;20.804;2023-04-30T09:27:23;96600.66;;;15.74;56.13
75290;BME280;63883;48.996;20.804;2023-04-30T09:29:49;96607.59;;;15.72;56.13
75290;BME280;63883;48.996;20.804;2023-04-30T09:32:15;96603.50;;;15.30;56.89
75290;BME280;63883;48.996;20.804;2023-04-30T09:34:40;96598.66;;;15.61;57.14
75290;BME280;63883;48.996;20.804;2023-04-30T09:37:08;96591.53;;;14.92;57.36
75290;BME280;63883;48.996;20.804;2023-04-30T09:39:52;96599.94;;;14.76;58.19
75290;BME280;63883;48.996;20.804;2023-04-30T09:42:18;96604.38;;;14.92;59.06
75290;BME280;63883;48.996;20.804;2023-04-30T09:44:45;96610.88;;;15.19;59.59
75290;BME280;63883;48.996;20.804;2023-04-30T09:47:14;96618.16;;;15.66;58.42
75290;BME280;63883;48.996;20.804;2023-04-30T09:49:41;96624.03;;;15.69;56.84
75290;BME280;63883;48.996;20.804;2023-04-30T09:52:08;96632.75;;;15.46;58.54
75290;BME280;63883;48.996;20.804;2023-04-30T09:54:34;96631.06;;;15.08;58.59
75290;BME280;63883;48.996;20.804;2023-04-30T09:57:01;96632.09;;;14.65;60.07
75290;BME280;63883;48.996;20.804;2023-04-30T09:59:27;96638.31;;;14.39;60.41
75290;BME280;63883;48.996;20.804;2023-04-30T10:01:57;96640.47;;;14.06;61.14
75290;BME280;63883;48.996;20.804;2023-04-30T10:04:26;96634.66;;;14.02;62.09
75290;BME280;63883;48.996;20.804;2023-04-30T10:06:53;96631.50;;;13.96;61.32
75290;BME280;63883;48.996;20.804;2023-04-30T10:09:25;96635.03;;;14.14;62.09
75290;BME280;63883;48.996;20.804;2023-04-30T10:11:55;96636.66;;;14.38;61.01
75290;BME280;63883;48.996;20.804;2023-04-30T10:14:22;96633.56;;;14.50;60.03
75290;BME280;63883;48.996;20.804;2023-04-30T10:16:54;96645.88;;;14.82;59.04
75290;BME280;63883;48.996;20.804;2023-04-30T10:19:25;96638.22;;;14.62;58.53
75290;BME280;63883;48.996;20.804;2023-04-30T10:21:54;96637.06;;;14.69;57.99
75290;BME280;63883;48.996;20.804;2023-04-30T10:24:22;96640.59;;;14.85;57.28
75290;BME280;63883;48.996;20.804;2023-04-30T10:26:48;96632.84;;;15.06;56.96
75290;BME280;63883;48.996;20.804;2023-04-30T10:29:15;96637.59;;;15.15;55.81
75290;BME280;63883;48.996;20.804;2023-04-30T10:31:47;96637.47;;;15.18;55.90
75290;BME280;63883;48.996;20.804;2023-04-30T10:36:46;96637.81;;;15.29;56.38
75290;BME280;63883;48.996;20.804;2023-04-30T10:39:16;96627.97;;;15.57;54.04
75290;BME280;63883;48.996;20.804;2023-04-30T10:41:44;96639.09;;;15.58;54.09
75290;BME280;63883;48.996;20.804;2023-04-30T10:44:11;96641.59;;;15.41;54.42
75290;BME280;63883;48.996;20.804;2023-04-30T10:46:37;96635.47;;;16.34;52.34
75290;BME280;63883;48.996;20.804;2023-04-30T10:49:03;96633.19;;;17.12;51.32
75290;BME280;63883;48.996;20.804;2023-04-30T10:51:49;96635.63;;;17.64;49.76
75290;BME280;63883;48.996;20.804;2023-04-30T10:54:28;96624.59;;;18.96;47.22
75290;BME280;63883;48.996;20.804;2023-04-30T10:57:11;96627.41;;;19.07;45.82
75290;BME280;63883;48.996;20.804;2023-04-30T10:59:42;96632.00;;;18.44;45.28
75290;BME280;63883;48.996;20.804;2023-04-30T11:02:10;96640.19;;;17.75;47.98
75290;BME280;63883;48.996;20.804;2023-04-30T11:07:32;96645.31;;;16.60;50.02
75290;BME280;63883;48.996;20.804;2023-04-30T11:10:00;96648.06;;;17.56;47.68
75290;BME280;63883;48.996;20.804;2023-04-30T11:12:27;96639.66;;;18.15;46.54
75290;BME280;63883;48.996;20.804;2023-04-30T11:15:20;96653.13;;;17.42;46.71
75290;BME280;63883;48.996;20.804;2023-04-30T11:17:48;96655.53;;;17.45;47.89
75290;BME280;63883;48.996;20.804;2023-04-30T11:20:19;96655.16;;;17.20;47.04
75290;BME280;63883;48.996;20.804;2023-04-30T11:22:45;96660.41;;;16.68;47.39
75290;BME280;63883;48.996;20.804;2023-04-30T11:25:11;96648.13;;;16.73;48.32
75290;BME280;63883;48.996;20.804;2023-04-30T11:27:40;96657.44;;;17.41;48.21
75290;BME280;63883;48.996;20.804;2023-04-30T11:30:11;96662.13;;;17.50;47.30
75290;BME280;63883;48.996;20.804;2023-04-30T11:32:41;96658.50;;;18.31;44.85
75290;BME280;63883;48.996;20.804;2023-04-30T11:35:08;96663.97;;;19.29;43.09
75290;BME280;63883;48.996;20.804;2023-04-30T11:37:37;96664.53;;;19.48;42.15
75290;BME280;63883;48.996;20.804;2023-04-30T11:40:05;96667.06;;;20.45;39.99
75290;BME280;63883;48.996;20.804;2023-04-30T11:42:32;96663.56;;;20.46;38.95
75290;BME280;63883;48.996;20.804;2023-04-30T11:45:08;96669.53;;;19.23;40.89
75290;BME280;63883;48.996;20.804;2023-04-30T11:47:51;96661.31;;;18.43;42.73
75290;BME280;63883;48.996;20.804;2023-04-30T11:50:21;96667.03;;;18.18;44.79
75290;BME280;63883;48.996;20.804;2023-04-30T11:52:55;96669.84;;;19.17;42.17
75290;BME280;63883;48.996;20.804;2023-04-30T11:55:25;96668.72;;;19.92;42.13
75290;BME280;63883;48.996;20.804;2023-04-30T11:57:53;96672.28;;;19.34;41.47
75290;BME280;63883;48.996;20.804;2023-04-30T12:00:27;96676.34;;;18.66;41.96
75290;BME280;63883;48.996;20.804;2023-04-30T12:02:55;96679.22;;;18.00;43.11
75290;BME280;63883;48.996;20.804;2023-04-30T12:05:23;96679.88;;;17.72;44.07
75290;BME280;63883;48.996;20.804;2023-04-30T12:07:49;96671.84;;;18.08;44.12
75290;BME280;63883;48.996;20.804;2023-04-30T12:10:17;96680.72;;;19.93;39.50
75290;BME280;63883;48.996;20.804;2023-04-30T12:12:43;96672.28;;;21.71;38.16
75290;BME280;63883;48.996;20.804;2023-04-30T12:15:14;96668.06;;;22.07;35.41
75290;BME280;63883;48.996;20.804;2023-04-30T12:17:42;96675.44;;;20.09;39.00
75290;BME280;63883;48.996;20.804;2023-04-30T12:20:08;96675.94;;;19.02;41.02
75290;BME280;63883;48.996;20.804;2023-04-30T12:22:34;96682.44;;;18.19;43.21
75290;BME280;63883;48.996;20.804;2023-04-30T12:25:06;96676.75;;;17.17;44.32
75290;BME280;63883;48.996;20.804;2023-04-30T12:27:32;96669.28;;;16.62;46.71
75290;BME280;63883;48.996;20.804;2023-04-30T12:30:04;96677.03;;;16.44;47.48
75290;BME280;63883;48.996;20.804;2023-04-30T12:32:37;96675.47;;;16.05;47.85
75290;BME280;63883;48.996;20.804;2023-04-30T12:35:04;96666.69;;;15.54;49.09
75290;BME280;63883;48.996;20.804;2023-04-30T12:37:30;96665.16;;;15.69;48.78
75290;BME280;63883;48.996;20.804;2023-04-30T12:39:56;96668.97;;;15.60;48.96
75290;BME280;63883;48.996;20.804;2023-04-30T12:42:23;96671.94;;;15.33;49.41
75290;BME280;63883;48.996;20.804;2023-04-30T12:44:49;96663.44;;;15.31;50.45
75290;BME280;63883;48.996;20.804;2023-04-30T12:47:15;96671.28;;;15.28;49.07
75290;BME280;63883;48.996;20.804;2023-04-30T12:49:44;96676.09;;;15.35;48.93
75290;BME280;63883;48.996;20.804;2023-04-30T12:52:12;96670.06;;;15.36;49.00
75290;BME280;63883;48.996;20.804;2023-04-30T12:54:38;96671.09;;;15.32;49.50
75290;BME280;63883;48.996;20.804;2023-04-30T12:57:09;96668.81;;;15.26;49.04
75290;BME280;63883;48.996;20.804;2023-04-30T12:59:59;96670.19;;;14.94;48.91
75290;BME280;63883;48.996;20.804;2023-04-30T13:02:28;96664.50;;;14.88;49.75
75290;BME280;63883;48.996;20.804;2023-04-30T13:04:56;96664.50;;;14.67;50.12
75290;BME280;63883;48.996;20.804;2023-04-30T13:07:22;96658.88;;;14.59;50.30
75290;BME280;63883;48.996;20.804;2023-04-30T13:09:48;96665.47;;;14.65;49.35
75290;BME280;63883;48.996;20.804;2023-04-30T13:12:14;96647.06;;;14.75;49.65
75290;BME280;63883;48.996;20.804;2023-04-30T13:14:39;96646.50;;;14.88;49.14